createdAt,value
2022-12-28T00:00:41.792Z,18.52
2022-12-28T00:01:43.359Z,16.75
2022-12-28T00:02:44.913Z,18.45
2022-12-28T00:03:47.187Z,22.55
2022-12-28T00:04:48.748Z,22.02
2022-12-28T00:05:50.297Z,22.25
2022-12-28T00:06:51.759Z,19.77
2022-12-28T00:07:53.212Z,20.90
2022-12-28T00:08:55.459Z,18.98
2022-12-28T00:09:56.952Z,19.40
2022-12-28T00:11:07.912Z,19.60
2022-12-28T00:12:11.018Z,22.00
2022-12-28T00:13:12.490Z,19.05
2022-12-28T00:14:14.085Z,18.92
2022-12-28T00:15:15.820Z,20.13
2022-12-28T00:16:25.812Z,17.38
2022-12-28T00:17:27.412Z,16.27
2022-12-28T00:18:28.867Z,18.30
2022-12-28T00:19:30.416Z,19.05
2022-12-28T00:20:31.998Z,17.48
2022-12-28T00:21:33.842Z,20.88
2022-12-28T00:22:35.329Z,17.63
2022-12-28T00:23:36.810Z,19.80
2022-12-28T00:24:38.373Z,17.30
2022-12-28T00:25:39.873Z,13.25
2022-12-28T00:26:41.387Z,17.70
2022-12-28T00:27:42.877Z,15.52
2022-12-28T00:28:44.453Z,13.38
2022-12-28T00:29:45.995Z,17.23
2022-12-28T00:30:48.212Z,16.75
2022-12-28T00:31:51.363Z,12.70
2022-12-28T00:32:52.990Z,13.57
2022-12-28T00:33:54.627Z,15.57
2022-12-28T00:34:56.099Z,15.52
2022-12-28T00:35:59.497Z,13.80
2022-12-28T00:37:10.104Z,15.73
2022-12-28T00:38:13.989Z,13.00
2022-12-28T00:39:15.477Z,15.35
2022-12-28T00:40:23.626Z,17.70
2022-12-28T00:41:25.593Z,14.02
2022-12-28T00:42:27.116Z,18.20
2022-12-28T00:43:28.611Z,12.43
2022-12-28T00:44:30.140Z,13.02
2022-12-28T00:45:31.669Z,13.18
2022-12-28T00:46:33.228Z,12.45
2022-12-28T00:47:36.054Z,12.05
2022-12-28T00:48:37.582Z,14.25
2022-12-28T00:49:39.106Z,11.88
2022-12-28T00:50:41.395Z,11.43
2022-12-28T00:51:42.906Z,9.85
2022-12-28T00:52:44.397Z,12.15
2022-12-28T00:53:46.347Z,12.68
2022-12-28T00:54:47.846Z,14.43
2022-12-28T00:56:06.067Z,11.15
2022-12-28T00:57:07.582Z,10.38
2022-12-28T00:58:09.971Z,7.82
2022-12-28T00:59:12.337Z,9.63
2022-12-28T01:00:15.238Z,12.80
2022-12-28T01:01:19.454Z,8.98
2022-12-28T01:02:21.126Z,12.50
2022-12-28T01:03:24.031Z,11.43
2022-12-28T01:04:25.537Z,9.50
2022-12-28T01:05:27.296Z,12.18
2022-12-28T01:06:28.933Z,10.45
2022-12-28T01:07:36.757Z,11.88
2022-12-28T01:08:38.839Z,8.73
2022-12-28T01:09:40.383Z,10.52
2022-12-28T01:10:41.889Z,11.93
2022-12-28T01:11:43.377Z,8.52
2022-12-28T01:12:44.986Z,12.45
2022-12-28T01:13:46.974Z,10.27
2022-12-28T01:14:48.502Z,9.35
2022-12-28T01:15:49.971Z,9.60
2022-12-28T01:16:52.286Z,9.63
2022-12-28T01:17:53.844Z,9.45
2022-12-28T01:18:58.846Z,11.50
2022-12-28T01:20:00.387Z,12.32
2022-12-28T01:21:08.468Z,12.48
2022-12-28T01:22:09.945Z,10.38
2022-12-28T01:23:11.458Z,13.88
2022-12-28T01:24:13.002Z,9.07
2022-12-28T01:25:14.660Z,10.77
2022-12-28T01:26:16.571Z,12.98
2022-12-28T01:27:18.417Z,11.07
2022-12-28T01:28:19.914Z,11.82
2022-12-28T01:29:21.506Z,12.57
2022-12-28T01:30:22.989Z,10.40
2022-12-28T01:31:24.720Z,9.88
2022-12-28T01:32:26.236Z,14.73
2022-12-28T01:33:27.743Z,13.27
2022-12-28T01:34:30.611Z,12.82
2022-12-28T01:35:32.094Z,13.75
2022-12-28T01:36:33.971Z,11.60
2022-12-28T01:37:35.535Z,13.77
2022-12-28T01:39:02.676Z,13.30
2022-12-28T01:40:05.050Z,12.55
2022-12-28T01:41:07.768Z,12.05
2022-12-28T01:42:15.756Z,14.75
2022-12-28T01:43:29.815Z,13.73
2022-12-28T01:44:41.837Z,13.48
2022-12-28T01:45:48.616Z,14.00
2022-12-28T01:46:52.160Z,15.40
2022-12-28T01:47:55.729Z,17.75
2022-12-28T01:49:02.625Z,14.32
2022-12-28T01:50:09.474Z,17.27
2022-12-28T01:51:11.333Z,14.98
2022-12-28T01:52:16.811Z,15.52
2022-12-28T01:53:20.370Z,15.63
2022-12-28T01:54:24.211Z,13.82
2022-12-28T01:55:28.056Z,18.10
2022-12-28T01:56:29.736Z,17.65
2022-12-28T01:57:34.185Z,16.67
2022-12-28T01:58:36.137Z,18.13
2022-12-28T01:59:42.400Z,17.50
2022-12-28T02:00:43.921Z,17.92
2022-12-28T02:01:45.698Z,20.70
2022-12-28T02:02:52.306Z,20.50
2022-12-28T02:03:53.915Z,17.15
2022-12-28T02:04:55.594Z,18.80
2022-12-28T02:06:01.784Z,21.33
2022-12-28T02:07:04.260Z,18.15
2022-12-28T02:08:10.656Z,21.23
2022-12-28T02:09:17.610Z,19.63
2022-12-28T02:10:40.539Z,22.38
2022-12-28T02:11:41.600Z,18.42
2022-12-28T02:12:44.348Z,18.33
2022-12-28T02:13:48.365Z,25.35
2022-12-28T02:14:49.925Z,22.77
2022-12-28T02:15:52.004Z,25.00
2022-12-28T02:16:54.951Z,26.58
2022-12-28T02:17:57.509Z,21.63
2022-12-28T02:18:59.024Z,26.90
2022-12-28T02:20:00.940Z,26.25
2022-12-28T02:21:26.047Z,28.15
2022-12-28T02:22:52.485Z,23.38
2022-12-28T02:24:24.563Z,22.00
2022-12-28T02:26:06.203Z,24.77
2022-12-28T02:27:14.370Z,28.08
2022-12-28T02:28:40.759Z,28.55
2022-12-28T02:30:03.426Z,30.23
2022-12-28T02:31:09.296Z,35.53
2022-12-28T02:32:23.270Z,26.38
2022-12-28T02:33:31.726Z,26.00
2022-12-28T02:34:41.535Z,28.42
2022-12-28T02:35:48.575Z,27.73
2022-12-28T02:36:55.261Z,30.63
2022-12-28T02:38:01.154Z,29.40
2022-12-28T02:39:08.416Z,32.78
2022-12-28T02:40:15.361Z,42.97
2022-12-28T02:43:22.634Z,102.88
2022-12-28T02:44:25.628Z,193.60
2022-12-28T02:45:30.899Z,301.73
2022-12-28T02:46:33.762Z,304.38
2022-12-28T02:47:35.547Z,254.93
2022-12-28T02:48:48.924Z,449.08
2022-12-28T02:49:50.385Z,292.88
2022-12-28T02:51:05.452Z,334.48
2022-12-28T02:52:16.700Z,315.65
2022-12-28T02:53:43.440Z,405.27
2022-12-28T02:55:03.586Z,343.83
2022-12-28T02:56:17.741Z,306.75
2022-12-28T02:57:31.899Z,281.48
2022-12-28T02:59:01.119Z,314.42
2022-12-28T03:00:06.570Z,400.15
2022-12-28T03:01:22.667Z,344.10
2022-12-28T03:02:41.818Z,327.40
2022-12-28T03:03:56.530Z,344.13
2022-12-28T03:05:10.651Z,400.77
2022-12-28T03:06:20.050Z,303.23
2022-12-28T03:07:28.535Z,255.38
2022-12-28T03:08:36.967Z,413.73
2022-12-28T03:09:44.210Z,270.65
2022-12-28T03:10:52.005Z,425.15
2022-12-28T03:11:58.008Z,459.88
2022-12-28T03:13:03.405Z,357.45
2022-12-28T03:14:09.597Z,260.20
2022-12-28T03:15:22.694Z,419.88
2022-12-28T03:16:30.618Z,402.98
2022-12-28T03:17:35.857Z,292.58
2022-12-28T03:18:39.207Z,344.88
2022-12-28T03:19:46.313Z,400.52
2022-12-28T03:21:02.579Z,376.65
2022-12-28T03:22:04.166Z,419.75
2022-12-28T03:23:09.908Z,488.20
2022-12-28T03:24:14.547Z,345.63
2022-12-28T03:25:21.256Z,497.52
2022-12-28T03:26:24.196Z,431.55
2022-12-28T03:27:29.013Z,576.15
2022-12-28T03:28:32.829Z,463.75
2022-12-28T03:29:39.524Z,318.52
2022-12-28T03:30:45.601Z,486.25
2022-12-28T03:31:47.674Z,423.17
2022-12-28T03:32:50.227Z,559.83
2022-12-28T03:33:54.678Z,466.67
2022-12-28T03:34:56.832Z,484.20
2022-12-28T03:36:08.107Z,491.15
2022-12-28T03:37:17.316Z,468.83
2022-12-28T03:38:26.209Z,476.55
2022-12-28T03:39:36.508Z,428.42
2022-12-28T03:40:48.307Z,375.67
2022-12-28T03:41:54.781Z,465.60
2022-12-28T03:43:03.228Z,463.10
2022-12-28T03:44:09.685Z,504.40
2022-12-28T03:45:45.360Z,491.30
2022-12-28T03:46:47.270Z,299.52
2022-12-28T03:47:51.916Z,487.48
2022-12-28T03:48:53.768Z,570.47
2022-12-28T03:49:55.608Z,494.58
2022-12-28T03:50:57.397Z,454.90
2022-12-28T03:52:00.838Z,527.85
2022-12-28T03:53:02.520Z,492.63
2022-12-28T03:54:04.169Z,594.28
2022-12-28T03:55:06.253Z,487.15
2022-12-28T03:56:10.243Z,504.15
2022-12-28T03:57:11.797Z,536.72
2022-12-28T03:58:13.316Z,634.00
2022-12-28T03:59:14.855Z,494.98
2022-12-28T04:00:16.757Z,385.05
2022-12-28T04:01:18.631Z,570.28
2022-12-28T04:02:21.710Z,624.85
2022-12-28T04:03:23.329Z,434.00
2022-12-28T04:04:24.888Z,462.80
2022-12-28T04:05:26.560Z,516.80
2022-12-28T04:06:28.113Z,605.78
2022-12-28T04:07:29.649Z,533.65
2022-12-28T04:08:31.607Z,522.78
2022-12-28T04:09:33.133Z,593.40
2022-12-28T04:10:34.648Z,562.83
2022-12-28T04:11:37.237Z,613.33
2022-12-28T04:12:38.750Z,552.88
2022-12-28T04:13:40.283Z,509.00
2022-12-28T04:14:41.786Z,620.50
2022-12-28T04:15:43.352Z,581.67
2022-12-28T04:16:44.975Z,450.77
2022-12-28T04:17:47.827Z,491.63
2022-12-28T04:18:49.540Z,651.33
2022-12-28T04:19:51.042Z,486.65
2022-12-28T04:20:53.261Z,583.58
2022-12-28T04:21:54.732Z,711.78
2022-12-28T04:22:56.264Z,656.90
2022-12-28T04:23:57.821Z,625.83
2022-12-28T04:24:59.314Z,701.63
2022-12-28T04:26:02.558Z,677.00
2022-12-28T04:27:04.273Z,798.42
2022-12-28T04:28:05.810Z,782.75
2022-12-28T04:29:07.344Z,746.30
2022-12-28T04:30:09.727Z,748.75
2022-12-28T04:31:13.859Z,704.40
2022-12-28T04:32:15.449Z,723.47
2022-12-28T04:33:18.448Z,670.47
2022-12-28T04:34:19.972Z,652.92
2022-12-28T04:35:21.448Z,668.75
2022-12-28T04:36:23.029Z,669.63
2022-12-28T04:37:24.575Z,650.33
2022-12-28T04:38:26.406Z,715.40
2022-12-28T04:39:27.948Z,641.65
2022-12-28T04:40:49.405Z,716.10
2022-12-28T04:41:50.922Z,786.60
2022-12-28T04:42:52.425Z,717.05
2022-12-28T04:43:54.873Z,566.95
2022-12-28T04:44:56.434Z,690.47
2022-12-28T04:45:58.884Z,593.35
2022-12-28T04:47:00.383Z,718.85
2022-12-28T04:48:02.492Z,571.78
2022-12-28T04:49:05.352Z,472.50
2022-12-28T04:50:08.260Z,398.00
2022-12-28T04:51:15.480Z,494.05
2022-12-28T04:52:17.028Z,250.43
2022-12-28T04:53:18.656Z,324.75
2022-12-28T04:54:20.123Z,365.70
2022-12-28T04:55:32.210Z,378.98
2022-12-28T04:56:34.656Z,100.07
2022-12-28T04:57:36.135Z,132.70
2022-12-28T04:58:37.988Z,153.13
2022-12-28T04:59:42.557Z,185.90
2022-12-28T05:00:44.172Z,233.35
2022-12-28T05:01:45.908Z,244.45
2022-12-28T05:02:47.621Z,409.90
2022-12-28T05:03:54.941Z,107.57
2022-12-28T05:04:58.474Z,252.52
2022-12-28T05:06:00.861Z,325.42
2022-12-28T05:07:02.393Z,87.25
2022-12-28T05:08:04.157Z,122.47
2022-12-28T05:09:05.655Z,149.63
2022-12-28T05:10:07.833Z,266.33
2022-12-28T05:11:13.440Z,282.98
2022-12-28T05:12:14.961Z,352.02
2022-12-28T05:13:16.534Z,562.10
2022-12-28T05:14:18.037Z,386.50
2022-12-28T05:15:19.530Z,418.23
2022-12-28T05:16:23.951Z,592.33
2022-12-28T05:17:25.519Z,503.10
2022-12-28T05:18:27.017Z,612.47
2022-12-28T05:19:28.523Z,648.70
2022-12-28T05:20:31.375Z,604.22
2022-12-28T05:21:32.907Z,608.28
2022-12-28T05:22:39.168Z,547.40
2022-12-28T05:23:42.912Z,585.28
2022-12-28T05:24:44.420Z,372.10
2022-12-28T05:25:52.718Z,391.92
2022-12-28T05:26:54.232Z,392.98
2022-12-28T05:27:55.707Z,403.23
2022-12-28T05:28:58.802Z,281.42
2022-12-28T05:30:00.510Z,344.20
2022-12-28T05:31:04.357Z,353.38
2022-12-28T05:32:06.269Z,234.02
2022-12-28T05:33:07.749Z,159.50
2022-12-28T05:34:09.303Z,436.38
2022-12-28T05:35:10.838Z,218.85
2022-12-28T05:36:15.892Z,252.57
2022-12-28T05:37:21.933Z,412.85
2022-12-28T05:38:23.843Z,398.52
2022-12-28T05:39:25.392Z,484.58
2022-12-28T05:40:27.068Z,402.63
2022-12-28T05:41:33.732Z,411.35
2022-12-28T05:42:35.726Z,583.58
2022-12-28T05:43:37.299Z,250.13
2022-12-28T05:44:38.817Z,189.52
2022-12-28T05:45:40.333Z,168.23
2022-12-28T05:46:41.921Z,260.77
2022-12-28T05:47:43.520Z,151.95
2022-12-28T05:48:45.105Z,202.20
2022-12-28T05:49:46.609Z,265.35
2022-12-28T05:50:48.145Z,114.93
2022-12-28T05:51:51.620Z,192.65
2022-12-28T05:52:53.205Z,113.57
2022-12-28T05:53:55.114Z,105.25
2022-12-28T05:54:56.591Z,128.05
2022-12-28T05:56:02.437Z,146.68
2022-12-28T05:57:04.249Z,188.30
2022-12-28T05:58:05.741Z,196.25
2022-12-28T05:59:07.998Z,150.18
2022-12-28T06:00:10.465Z,157.52
2022-12-28T06:01:14.678Z,114.88
2022-12-28T06:02:19.179Z,137.50
2022-12-28T06:03:24.621Z,94.65
2022-12-28T06:04:26.219Z,133.95
2022-12-28T06:05:27.695Z,86.70
2022-12-28T06:06:30.227Z,97.35
2022-12-28T06:07:33.061Z,105.68
2022-12-28T06:08:37.186Z,80.97
2022-12-28T06:09:38.701Z,70.32
2022-12-28T06:10:40.196Z,67.68
2022-12-28T06:11:41.869Z,77.03
2022-12-28T06:12:43.396Z,69.97
2022-12-28T06:13:45.115Z,84.68
2022-12-28T06:14:46.681Z,80.07
2022-12-28T06:15:48.146Z,78.15
2022-12-28T06:16:49.664Z,76.45
2022-12-28T06:17:52.809Z,68.53
2022-12-28T06:18:54.365Z,73.53
2022-12-28T06:19:55.859Z,76.00
2022-12-28T06:21:01.999Z,64.38
2022-12-28T06:22:03.495Z,61.42
2022-12-28T06:23:06.312Z,63.50
2022-12-28T06:24:09.334Z,72.72
2022-12-28T06:25:14.020Z,61.10
2022-12-28T06:26:17.153Z,69.28
2022-12-28T06:27:18.710Z,73.63
2022-12-28T06:28:20.229Z,72.10
2022-12-28T06:29:21.756Z,75.18
2022-12-28T06:30:23.285Z,67.43
2022-12-28T06:31:27.033Z,77.00
2022-12-28T06:32:28.584Z,95.05
2022-12-28T06:33:30.308Z,75.18
2022-12-28T06:34:31.851Z,70.18
2022-12-28T06:35:33.369Z,73.70
2022-12-28T06:36:36.967Z,79.88
2022-12-28T06:37:38.498Z,72.68
2022-12-28T06:38:52.131Z,72.00
2022-12-28T06:39:53.614Z,91.63
2022-12-28T06:41:12.744Z,64.50
2022-12-28T06:42:15.149Z,79.45
2022-12-28T06:43:16.962Z,77.43
2022-12-28T06:44:18.448Z,78.25
2022-12-28T06:45:19.988Z,90.85
2022-12-28T06:46:23.554Z,83.45
2022-12-28T06:47:25.088Z,86.53
2022-12-28T06:48:39.871Z,87.25
2022-12-28T06:49:41.382Z,68.18
2022-12-28T06:50:42.886Z,67.25
2022-12-28T06:51:44.378Z,78.00
2022-12-28T06:52:45.897Z,74.20
2022-12-28T06:53:48.812Z,61.90
2022-12-28T06:54:51.712Z,78.85
2022-12-28T06:55:54.641Z,65.30
2022-12-28T06:56:56.134Z,64.82
2022-12-28T06:57:58.882Z,66.70
2022-12-28T06:59:03.658Z,58.00
2022-12-28T07:00:06.950Z,56.13
2022-12-28T07:01:09.808Z,61.55
2022-12-28T07:02:11.574Z,63.88
2022-12-28T07:03:13.250Z,56.38
2022-12-28T07:04:14.934Z,60.05
2022-12-28T07:05:16.633Z,55.67
2022-12-28T07:06:19.868Z,43.88
2022-12-28T07:07:21.388Z,54.13
2022-12-28T07:08:22.862Z,46.80
2022-12-28T07:09:24.388Z,47.85
2022-12-28T07:10:27.242Z,45.30
2022-12-28T07:11:29.195Z,49.10
2022-12-28T07:12:30.728Z,45.20
2022-12-28T07:13:33.055Z,43.88
2022-12-28T07:14:34.579Z,50.13
2022-12-28T07:15:36.726Z,40.70
2022-12-28T07:17:38.693Z,45.45
2022-12-28T07:18:40.305Z,37.90
2022-12-28T07:19:41.784Z,42.45
2022-12-28T07:20:43.323Z,40.30
2022-12-28T07:21:44.828Z,39.28
2022-12-28T07:22:46.361Z,41.53
2022-12-28T07:23:48.052Z,39.28
2022-12-28T07:24:49.524Z,45.38
2022-12-28T07:25:52.387Z,41.45
2022-12-28T07:26:53.923Z,38.25
2022-12-28T07:27:55.426Z,42.50
2022-12-28T07:28:59.284Z,41.40
2022-12-28T07:30:01.121Z,41.78
2022-12-28T07:31:05.735Z,39.63
2022-12-28T07:32:07.265Z,38.72
2022-12-28T07:33:08.754Z,40.47
2022-12-28T07:34:10.414Z,39.00
2022-12-28T07:35:11.936Z,44.35
2022-12-28T07:36:16.328Z,39.47
2022-12-28T07:37:17.913Z,39.85
2022-12-28T07:38:21.554Z,33.58
2022-12-28T07:39:23.267Z,36.55
2022-12-28T07:40:24.757Z,38.33
2022-12-28T07:41:30.182Z,29.17
2022-12-28T07:42:31.784Z,38.10
2022-12-28T07:43:33.764Z,39.40
2022-12-28T07:44:38.173Z,38.00
2022-12-28T07:45:39.938Z,34.60
2022-12-28T07:46:41.564Z,32.72
2022-12-28T07:47:43.080Z,33.50
2022-12-28T07:48:45.873Z,35.08
2022-12-28T07:49:47.384Z,30.02
2022-12-28T07:50:48.893Z,34.70
2022-12-28T07:51:50.402Z,32.40
2022-12-28T07:52:51.902Z,35.63
2022-12-28T07:53:55.187Z,30.45
2022-12-28T07:54:56.701Z,36.70
2022-12-28T07:55:59.210Z,33.42
2022-12-28T07:57:02.117Z,31.67
2022-12-28T07:58:03.598Z,32.28
2022-12-28T07:59:05.920Z,29.20
2022-12-28T08:00:08.752Z,32.47
2022-12-28T08:01:13.096Z,31.00
2022-12-28T08:02:15.452Z,31.95
2022-12-28T08:03:17.241Z,32.10
2022-12-28T08:04:18.781Z,32.50
2022-12-28T08:05:20.283Z,30.35
2022-12-28T08:06:23.015Z,23.17
2022-12-28T08:07:24.659Z,29.60
2022-12-28T08:08:26.109Z,25.85
2022-12-28T08:09:27.616Z,27.65
2022-12-28T08:10:29.129Z,22.85
2022-12-28T08:11:33.017Z,24.75
2022-12-28T08:12:35.849Z,24.58
2022-12-28T08:13:42.274Z,24.42
2022-12-28T08:14:43.779Z,23.27
2022-12-28T08:15:53.859Z,20.90
2022-12-28T08:16:55.409Z,21.63
2022-12-28T08:17:56.949Z,23.00
2022-12-28T08:18:58.641Z,21.00
2022-12-28T08:20:00.189Z,19.88
2022-12-28T08:21:02.561Z,19.17
2022-12-28T08:22:04.037Z,21.67
2022-12-28T08:23:05.520Z,22.33
2022-12-28T08:24:08.257Z,18.50
2022-12-28T08:25:10.087Z,21.70
2022-12-28T08:26:13.773Z,19.55
2022-12-28T08:27:15.290Z,20.17
2022-12-28T08:28:19.125Z,25.13
2022-12-28T08:29:22.265Z,22.27
2022-12-28T08:30:23.800Z,26.98
2022-12-28T08:31:27.056Z,21.58
2022-12-28T08:32:28.612Z,17.67
2022-12-28T08:33:30.076Z,18.40
2022-12-28T08:34:31.555Z,20.80
2022-12-28T08:35:33.073Z,19.10
2022-12-28T08:36:34.946Z,14.68
2022-12-28T08:37:36.465Z,17.40
2022-12-28T08:38:39.030Z,17.90
2022-12-28T08:39:40.587Z,17.25
2022-12-28T08:40:42.080Z,16.02
2022-12-28T08:41:43.591Z,19.95
2022-12-28T08:42:45.083Z,16.38
2022-12-28T08:43:49.446Z,16.25
2022-12-28T08:44:50.950Z,17.92
2022-12-28T08:45:59.305Z,19.85
2022-12-28T08:47:00.921Z,14.73
2022-12-28T08:48:02.465Z,19.65
2022-12-28T08:49:04.342Z,17.92
2022-12-28T08:50:07.435Z,20.67
2022-12-28T08:51:11.281Z,20.63
2022-12-28T08:52:12.785Z,22.52
2022-12-28T08:53:14.332Z,18.40
2022-12-28T08:54:15.855Z,18.42
2022-12-28T08:55:17.491Z,16.42
2022-12-28T08:56:21.212Z,18.38
2022-12-28T08:57:22.728Z,21.00
2022-12-28T08:58:24.292Z,18.38
2022-12-28T08:59:27.149Z,15.80
2022-12-28T09:00:28.661Z,23.05
2022-12-28T09:01:35.807Z,19.52
2022-12-28T09:02:39.072Z,18.13
2022-12-28T09:03:42.568Z,19.25
2022-12-28T09:04:44.322Z,16.98
2022-12-28T09:05:47.890Z,18.77
2022-12-28T09:06:51.514Z,17.30
2022-12-28T09:07:57.822Z,17.92
2022-12-28T09:09:06.346Z,17.27
2022-12-28T09:10:08.980Z,17.13
2022-12-28T09:11:12.439Z,15.15
2022-12-28T09:12:13.979Z,16.40
2022-12-28T09:13:15.501Z,21.27
2022-12-28T09:14:23.125Z,16.40
2022-12-28T09:15:26.924Z,21.38
2022-12-28T09:16:28.689Z,23.23
2022-12-28T09:18:01.327Z,14.45
2022-12-28T09:19:05.133Z,22.50
2022-12-28T09:20:07.372Z,14.10
2022-12-28T09:21:11.257Z,17.13
2022-12-28T09:22:12.812Z,16.83
2022-12-28T09:23:14.356Z,15.60
2022-12-28T09:24:16.070Z,17.60
2022-12-28T09:25:17.585Z,15.90
2022-12-28T09:26:21.323Z,16.90
2022-12-28T09:27:22.826Z,15.45
2022-12-28T09:28:24.293Z,13.90
2022-12-28T09:29:25.810Z,17.17
2022-12-28T09:30:28.652Z,14.68
2022-12-28T09:31:32.054Z,14.93
2022-12-28T09:32:33.645Z,13.02
2022-12-28T09:33:57.455Z,13.65
2022-12-28T09:34:57.633Z,16.80
2022-12-28T09:35:59.444Z,14.32
2022-12-28T09:37:01.470Z,14.40
2022-12-28T09:38:02.923Z,16.20
2022-12-28T09:39:06.788Z,14.18
2022-12-28T09:40:10.039Z,15.93
2022-12-28T09:41:22.007Z,13.63
2022-12-28T09:42:26.869Z,12.48
2022-12-28T09:43:28.609Z,14.35
2022-12-28T09:44:37.232Z,16.13
2022-12-28T09:45:41.209Z,13.95
2022-12-28T09:46:49.094Z,12.43
2022-12-28T09:47:53.771Z,14.90
2022-12-28T09:49:00.486Z,14.63
2022-12-28T09:50:26.244Z,12.40
2022-12-28T09:51:33.752Z,11.43
2022-12-28T09:53:05.188Z,11.82
2022-12-28T09:54:06.726Z,13.80
2022-12-28T09:55:13.710Z,15.23
2022-12-28T09:56:41.214Z,10.77
2022-12-28T09:57:47.675Z,9.23
2022-12-28T09:58:49.993Z,9.82
2022-12-28T09:59:53.040Z,10.30
2022-12-28T10:00:57.665Z,10.80
2022-12-28T10:02:03.299Z,11.57
2022-12-28T10:03:11.576Z,10.88
2022-12-28T10:04:13.188Z,9.52
2022-12-28T10:05:15.213Z,10.00
2022-12-28T10:06:20.851Z,11.13
2022-12-28T10:07:23.021Z,10.20
2022-12-28T10:08:26.205Z,9.25
2022-12-28T10:09:30.888Z,11.88
2022-12-28T10:10:33.230Z,9.05
2022-12-28T10:11:43.264Z,11.38
2022-12-28T10:12:45.787Z,10.32
2022-12-28T10:13:55.115Z,8.30
2022-12-28T10:14:59.644Z,11.13
2022-12-28T10:16:05.128Z,9.38
2022-12-28T10:17:06.666Z,7.82
2022-12-28T10:18:08.319Z,9.40
2022-12-28T10:19:12.236Z,8.65
2022-12-28T10:20:18.429Z,10.95
2022-12-28T10:21:26.840Z,9.18
2022-12-28T10:22:42.430Z,9.15
2022-12-28T10:24:29.116Z,6.85
2022-12-28T10:25:15.061Z,12.20
2022-12-28T10:26:19.977Z,13.07
2022-12-28T10:27:22.973Z,13.55
2022-12-28T10:28:29.955Z,9.30
2022-12-28T10:29:32.635Z,6.93
2022-12-28T10:30:44.865Z,8.60
2022-12-28T10:31:59.358Z,9.07
2022-12-28T10:33:03.448Z,8.15
2022-12-28T10:34:15.151Z,8.80
2022-12-28T10:35:23.717Z,10.80
2022-12-28T10:36:31.467Z,8.07
2022-12-28T10:37:36.814Z,12.00
2022-12-28T10:38:41.058Z,8.00
2022-12-28T10:39:49.909Z,8.00
2022-12-28T10:40:59.950Z,7.43
2022-12-28T10:42:02.216Z,7.05
2022-12-28T10:43:10.732Z,13.23
2022-12-28T10:44:38.955Z,7.78
2022-12-28T10:45:48.040Z,8.85
2022-12-28T10:46:57.687Z,8.02
2022-12-28T10:47:59.336Z,9.70
2022-12-28T10:49:02.114Z,7.78
2022-12-28T10:51:29.950Z,6.63
2022-12-28T10:52:31.416Z,8.57
2022-12-28T10:53:40.916Z,13.88
2022-12-28T10:54:42.795Z,14.40
2022-12-28T10:55:44.339Z,7.50
2022-12-28T10:56:49.019Z,7.93
2022-12-28T10:58:27.341Z,6.90
2022-12-28T10:59:20.438Z,6.88
2022-12-28T11:00:23.225Z,7.95
2022-12-28T11:01:30.526Z,6.00
2022-12-28T11:02:33.687Z,8.10
2022-12-28T11:03:37.965Z,7.82
2022-12-28T11:04:52.185Z,7.72
2022-12-28T11:06:11.890Z,7.22
2022-12-28T11:07:27.197Z,5.18
2022-12-28T11:08:28.676Z,7.20
2022-12-28T11:09:31.784Z,6.82
2022-12-28T11:10:33.279Z,7.07
2022-12-28T11:11:34.810Z,5.65
2022-12-28T11:12:43.128Z,5.88
2022-12-28T11:13:46.898Z,6.32
2022-12-28T11:14:48.711Z,8.45
2022-12-28T11:15:50.253Z,5.70
2022-12-28T11:16:52.440Z,7.10
2022-12-28T11:17:58.351Z,5.40
2022-12-28T11:19:00.267Z,5.40
2022-12-28T11:20:16.931Z,5.15
2022-12-28T11:21:20.864Z,6.13
2022-12-28T11:22:24.863Z,6.47
2022-12-28T11:23:27.497Z,9.15
2022-12-28T11:24:29.012Z,4.82
2022-12-28T11:25:33.012Z,7.45
2022-12-28T11:26:34.547Z,6.60
2022-12-28T11:27:36.377Z,5.95
2022-12-28T11:28:40.772Z,5.93
2022-12-28T11:29:46.385Z,5.78
2022-12-28T11:30:49.093Z,6.53
2022-12-28T11:31:58.481Z,5.78
2022-12-28T11:33:03.300Z,6.50
2022-12-28T11:34:06.680Z,6.70
2022-12-28T11:35:16.474Z,5.25
2022-12-28T11:36:20.406Z,6.55
2022-12-28T11:37:22.086Z,5.85
2022-12-28T11:38:40.390Z,12.35
2022-12-28T11:39:44.880Z,7.38
2022-12-28T11:40:49.121Z,5.55
2022-12-28T11:42:19.471Z,4.63
2022-12-28T11:43:37.501Z,7.15
2022-12-28T11:44:51.343Z,5.88
2022-12-28T11:46:42.454Z,5.93
2022-12-28T11:47:46.770Z,5.75
2022-12-28T11:48:57.208Z,3.75
2022-12-28T11:50:36.026Z,5.93
2022-12-28T11:51:39.400Z,7.43
2022-12-28T11:52:45.841Z,6.82
2022-12-28T11:54:36.878Z,5.10
2022-12-28T11:55:50.124Z,9.88
2022-12-28T11:56:58.534Z,4.60
2022-12-28T11:58:53.035Z,6.97
2022-12-28T12:00:34.382Z,5.45
2022-12-28T12:01:54.614Z,6.25
2022-12-28T12:02:59.504Z,5.97
2022-12-28T12:04:16.375Z,4.57
2022-12-28T12:05:47.311Z,6.97
2022-12-28T12:07:15.450Z,5.80
2022-12-28T12:08:39.742Z,5.60
2022-12-28T12:09:48.664Z,6.50
2022-12-28T12:11:10.353Z,6.40
2022-12-28T12:13:41.654Z,5.03
2022-12-28T12:14:46.335Z,8.68
2022-12-28T12:15:50.667Z,7.40
2022-12-28T12:16:57.348Z,5.93
2022-12-28T12:18:02.498Z,5.60
2022-12-28T12:19:04.924Z,6.88
2022-12-28T12:20:18.642Z,6.95
2022-12-28T12:21:30.335Z,6.75
2022-12-28T12:22:41.998Z,6.93
2022-12-28T12:23:48.661Z,5.63
2022-12-28T12:24:55.119Z,15.93
2022-12-28T12:26:00.518Z,15.65
2022-12-28T12:27:13.579Z,6.22
2022-12-28T12:28:35.310Z,6.63
2022-12-28T12:29:39.391Z,5.20
2022-12-28T12:30:42.793Z,5.30
2022-12-28T12:31:49.830Z,4.70
2022-12-28T12:32:55.841Z,5.25
2022-12-28T12:34:05.259Z,4.97
2022-12-28T12:35:08.320Z,6.35
2022-12-28T12:36:30.323Z,4.45
2022-12-28T12:37:45.276Z,5.82
2022-12-28T12:39:07.480Z,4.57
2022-12-28T12:40:44.155Z,5.30
2022-12-28T12:41:57.059Z,4.00
2022-12-28T12:43:20.203Z,5.15
2022-12-28T12:44:29.077Z,5.28
2022-12-28T12:45:38.943Z,3.78
2022-12-28T12:47:09.905Z,4.85
2022-12-28T12:50:20.399Z,8.70
2022-12-28T12:51:28.596Z,4.15
2022-12-28T12:52:42.446Z,5.95
2022-12-28T12:53:58.092Z,4.55
2022-12-28T12:55:14.559Z,3.08
2022-12-28T12:56:33.269Z,4.25
2022-12-28T12:57:45.573Z,3.63
2022-12-28T12:58:56.162Z,6.25
2022-12-28T13:00:10.718Z,3.63
2022-12-28T13:01:24.181Z,3.22
2022-12-28T13:02:59.901Z,3.97
2022-12-28T13:04:07.234Z,3.60
2022-12-28T13:05:16.431Z,3.88
2022-12-28T13:06:21.166Z,4.35
2022-12-28T13:07:25.981Z,3.25
2022-12-28T13:08:35.700Z,4.30
2022-12-28T13:09:37.515Z,3.30
2022-12-28T13:10:41.870Z,2.92
2022-12-28T13:11:43.860Z,2.70
2022-12-28T13:12:45.544Z,3.22
2022-12-28T13:13:48.998Z,3.92
2022-12-28T13:14:55.078Z,3.63
2022-12-28T13:16:01.596Z,4.28
2022-12-28T13:17:17.928Z,3.55
2022-12-28T13:19:42.967Z,9.35
2022-12-28T13:20:53.127Z,5.43
2022-12-28T13:21:55.708Z,3.47
2022-12-28T13:22:57.386Z,5.25
2022-12-28T13:24:00.214Z,3.72
2022-12-28T13:25:01.740Z,2.78
2022-12-28T13:26:03.538Z,3.25
2022-12-28T13:27:18.670Z,4.25
2022-12-28T13:28:22.098Z,3.72
2022-12-28T13:29:26.164Z,2.60
2022-12-28T13:30:28.699Z,3.20
2022-12-28T13:31:34.441Z,5.03
2022-12-28T13:32:38.271Z,3.72
2022-12-28T13:33:41.749Z,4.43
2022-12-28T13:34:49.400Z,2.60
2022-12-28T13:35:50.925Z,5.65
2022-12-28T13:36:54.186Z,2.72
2022-12-28T13:38:00.352Z,4.68
2022-12-28T13:39:19.392Z,3.22
2022-12-28T13:40:21.411Z,3.80
2022-12-28T13:41:25.702Z,3.53
2022-12-28T13:42:33.907Z,4.10
2022-12-28T13:44:00.901Z,5.32
2022-12-28T13:45:04.161Z,3.58
2022-12-28T13:46:09.713Z,2.97
2022-12-28T13:47:17.267Z,4.05
2022-12-28T13:48:19.059Z,3.38
2022-12-28T13:49:23.184Z,2.60
2022-12-28T13:50:27.714Z,3.55
2022-12-28T13:51:29.287Z,3.55
2022-12-28T13:52:35.844Z,3.13
2022-12-28T13:53:37.728Z,3.78
2022-12-28T13:54:55.372Z,4.57
2022-12-28T13:55:59.998Z,7.10
2022-12-28T13:57:35.930Z,3.22
2022-12-28T13:58:28.387Z,3.53
2022-12-28T13:59:30.049Z,3.90
2022-12-28T14:00:33.846Z,3.88
2022-12-28T14:01:36.956Z,3.78
2022-12-28T14:02:40.821Z,4.38
2022-12-28T14:03:46.301Z,4.00
2022-12-28T14:04:53.325Z,6.55
2022-12-28T14:05:58.778Z,2.78
2022-12-28T14:07:00.353Z,4.88
2022-12-28T14:08:05.334Z,2.40
2022-12-28T14:09:09.966Z,4.88
2022-12-28T14:10:11.921Z,2.97
2022-12-28T14:11:13.618Z,3.40
2022-12-28T14:12:16.242Z,3.70
2022-12-28T14:13:19.275Z,4.20